Time;durP1;ratioP1;P1;durP2;ratioP2;P2;SDS_P1;SDS_P2;PMS_P1;PMS_P2;Temp;Humidity;BMP_temperature;BMP_pressure;BME280_temperature;BME280_humidity;BME280_pressure;Samples;Min_cycle;Max_cycle;Signal;HPM_P1;HPM_P2
2023/09/26 00:02:14;;;;;;;;;;;;;;;;;;5113273;28;19923;-57
2023/09/26 00:04:40;;;;;;;;;;;;;;;;;;5117084;28;19943;-56
2023/09/26 00:07:05;;;;;;;;;;;;;;;;;;5116813;28;19912;-58
2023/09/26 00:09:31;;;;;;;;;;;;;;;;;;5103148;28;19908;-58
2023/09/26 00:11:57;;;;;;;;;;;;;;;;;;5116488;28;19933;-57
2023/09/26 00:14:22;;;;;;;;;;;;;;;;;;5103345;28;19916;-58
2023/09/26 00:16:48;;;;;;;;;;;;;;;;;;5116176;28;19916;-56
2023/09/26 00:19:13;;;;;;;;;;;;;;;;;;5109321;28;19920;-57
2023/09/26 00:21:39;;;;;;;;;;;;;;;;;;5096761;28;19919;-56
2023/09/26 00:24:05;;;;;;;;;;;;;;;;;;5098049;28;19919;-58
2023/09/26 00:26:31;;;;;;;;;;;;;;;;;;5097011;28;19916;-56
2023/09/26 00:28:58;;;;;;;;;;;;;;;;;;5098970;28;19912;-57
2023/09/26 00:31:23;;;;;;;;;;;;;;;;;;5096839;28;19913;-58
2023/09/26 00:33:49;;;;;;;;;;;;;;;;;;5079390;28;19913;-57
2023/09/26 00:36:15;;;;;;;;;;;;;;;;;;5096506;28;20076;-56
2023/09/26 00:38:41;;;;;;;;;;;;;;;;;;5080770;28;19913;-55
2023/09/26 00:41:06;;;;;;;;;;;;;;;;;;5078988;28;19916;-58
2023/09/26 00:43:35;;;;;;;;;;;;;;;;;;5079223;28;19917;-57
2023/09/26 00:46:00;;;;;;;;;;;;;;;;;;5079000;28;19916;-57
2023/09/26 00:48:25;;;;;;;;;;;;;;;;;;5112226;28;19936;-58
2023/09/26 00:50:51;;;;;;;;;;;;;;;;;;5098393;28;19920;-57
2023/09/26 00:53:17;;;;;;;;;;;;;;;;;;5102611;28;19979;-57
2023/09/26 00:55:43;;;;;;;;;;;;;;;;;;5103175;28;19917;-59
2023/09/26 00:58:08;;;;;;;;;;;;;;;;;;5096180;28;19920;-57
2023/09/26 01:00:34;;;;;;;;;;;;;;;;;;5109717;28;19913;-57
2023/09/26 01:02:59;;;;;;;;;;;;;;;;;;5095911;28;19916;-57
2023/09/26 01:05:26;;;;;;;;;;;;;;;;;;5097944;28;19919;-56
2023/09/26 01:07:51;;;;;;;;;;;;;;;;;;5112242;28;19912;-55
2023/09/26 01:10:16;;;;;;;;;;;;;;;;;;5106122;28;19947;-55
2023/09/26 01:12:42;;;;;;;;;;;;;;;;;;5079423;28;19912;-53
2023/09/26 01:15:08;;;;;;;;;;;;;;;;;;5096395;28;19959;-57
2023/09/26 01:17:34;;;;;;;;;;;;;;;;;;5097081;28;19908;-57
2023/09/26 01:20:12;;;;;;;;;;;;;;;;;;5120087;28;19912;-55
2023/09/26 01:22:38;;;;;;;;;;;;;;;;;;5082921;28;19919;-56
2023/09/26 01:25:03;;;;;;;;;;;;;;;;;;5081259;28;19913;-57
2023/09/26 01:27:28;;;;;;;;;;;;;;;;;;5097862;28;19971;-56
2023/09/26 01:29:54;;;;;;;;;;;;;;;;;;5129138;28;19912;-57
2023/09/26 01:32:20;;;;;;;;;;;;;;;;;;5115261;28;20386;-57
2023/09/26 01:34:46;;;;;;;;;;;;;;;;;;5117944;28;19916;-57
2023/09/26 01:37:11;;;;;;;;;;;;;;;;;;5111167;28;19912;-58
2023/09/26 01:39:37;;;;;;;;;;;;;;;;;;5119412;28;19916;-55
2023/09/26 01:42:02;;;;;;;;;;;;;;;;;;5100843;28;19912;-57
2023/09/26 01:44:28;;;;;;;;;;;;;;;;;;5078106;28;19976;-57
2023/09/26 01:46:54;;;;;;;;;;;;;;;;;;5094997;28;19912;-56
2023/09/26 01:49:19;;;;;;;;;;;;;;;;;;5095248;28;19972;-55
2023/09/26 01:51:44;;;;;;;;;;;;;;;;;;5082519;28;19935;-58
2023/09/26 01:54:10;;;;;;;;;;;;;;;;;;5095665;28;19912;-58
2023/09/26 01:56:35;;;;;;;;;;;;;;;;;;5101313;28;19970;-56
2023/09/26 01:59:01;;;;;;;;;;;;;;;;;;5085087;28;19923;-58
2023/09/26 02:01:26;;;;;;;;;;;;;;;;;;5083690;28;19916;-55
2023/09/26 02:03:52;;;;;;;;;;;;;;;;;;5111678;28;19916;-51
2023/09/26 02:06:19;;;;;;;;;;;;;;;;;;5111388;28;19916;-56
2023/09/26 02:08:45;;;;;;;;;;;;;;;;;;5111712;28;19920;-56
2023/09/26 02:11:11;;;;;;;;;;;;;;;;;;5079122;28;19934;-58
2023/09/26 02:13:36;;;;;;;;;;;;;;;;;;5096187;28;19912;-55
2023/09/26 02:16:02;;;;;;;;;;;;;;;;;;5124710;28;19916;-55
2023/09/26 02:18:27;;;;;;;;;;;;;;;;;;5077904;28;19972;-55
2023/09/26 02:20:53;;;;;;;;;;;;;;;;;;5111189;28;19912;-56
2023/09/26 02:23:19;;;;;;;;;;;;;;;;;;5101209;28;19916;-55
2023/09/26 02:25:44;;;;;;;;;;;;;;;;;;5115308;28;19912;-55
2023/09/26 02:28:11;;;;;;;;;;;;;;;;;;5114799;28;19979;-56
2023/09/26 02:30:36;;;;;;;;;;;;;;;;;;5087714;28;19918;-57
2023/09/26 02:33:02;;;;;;;;;;;;;;;;;;5106075;28;19912;-56
2023/09/26 02:35:27;;;;;;;;;;;;;;;;;;5081737;28;19943;-56
2023/09/26 02:37:52;;;;;;;;;;;;;;;;;;5081875;28;19924;-58
2023/09/26 02:40:17;;;;;;;;;;;;;;;;;;5083334;28;19926;-56
2023/09/26 02:42:46;;;;;;;;;;;;;;;;;;5088494;28;19913;-55
2023/09/26 02:45:12;;;;;;;;;;;;;;;;;;5085851;28;19950;-57
2023/09/26 02:47:39;;;;;;;;;;;;;;;;;;5105934;28;19923;-56
2023/09/26 02:50:04;;;;;;;;;;;;;;;;;;5103413;28;19912;-57
2023/09/26 02:52:29;;;;;;;;;;;;;;;;;;5092566;28;19947;-56
2023/09/26 02:54:55;;;;;;;;;;;;;;;;;;5115477;28;19939;-55
2023/09/26 02:57:20;;;;;;;;;;;;;;;;;;5087462;28;19920;-58
2023/09/26 02:59:46;;;;;;;;;;;;;;;;;;5098899;28;19934;-57
2023/09/26 03:02:11;;;;;;;;;;;;;;;;;;5084595;28;19912;-55
2023/09/26 03:04:37;;;;;;;;;;;;;;;;;;5098998;28;19912;-54
2023/09/26 03:07:02;;;;;;;;;;;;;;;;;;5080289;28;19984;-54
2023/09/26 03:09:28;;;;;;;;;;;;;;;;;;5099074;28;19928;-56
2023/09/26 03:11:53;;;;;;;;;;;;;;;;;;5098924;28;19912;-57
2023/09/26 03:14:19;;;;;;;;;;;;;;;;;;5096400;28;19920;-57
2023/09/26 03:16:45;;;;;;;;;;;;;;;;;;5098299;28;19916;-55
2023/09/26 03:19:10;;;;;;;;;;;;;;;;;;5086245;28;19947;-56
2023/09/26 03:21:36;;;;;;;;;;;;;;;;;;5114143;28;19919;-57
2023/09/26 03:24:01;;;;;;;;;;;;;;;;;;5098841;28;19912;-55
2023/09/26 03:26:27;;;;;;;;;;;;;;;;;;5109339;28;19919;-55
2023/09/26 03:28:53;;;;;;;;;;;;;;;;;;5098858;28;19984;-53
2023/09/26 03:31:20;;;;;;;;;;;;;;;;;;5122067;28;19923;-56
2023/09/26 03:33:45;;;;;;;;;;;;;;;;;;5079569;28;19944;-54
2023/09/26 03:36:10;;;;;;;;;;;;;;;;;;5083411;28;19923;-58
2023/09/26 03:38:36;;;;;;;;;;;;;;;;;;5085517;28;19975;-58
2023/09/26 03:41:01;;;;;;;;;;;;;;;;;;5094928;28;19980;-55
2023/09/26 03:43:26;;;;;;;;;;;;;;;;;;5115941;28;19919;-57
2023/09/26 03:45:52;;;;;;;;;;;;;;;;;;5111411;28;19961;-55
2023/09/26 03:48:18;;;;;;;;;;;;;;;;;;5115702;28;19916;-57
2023/09/26 03:50:46;;;;;;;;;;;;;;;;;;5112952;28;19935;-56
2023/09/26 03:53:11;;;;;;;;;;;;;;;;;;5116667;28;19933;-57
2023/09/26 03:55:38;;;;;;;;;;;;;;;;;;5104554;28;19944;-56
2023/09/26 03:58:03;;;;;;;;;;;;;;;;;;5102672;28;19923;-57
2023/09/26 04:00:29;;;;;;;;;;;;;;;;;;5113811;28;19912;-55
2023/09/26 04:02:56;;;;;;;;;;;;;;;;;;5097047;28;19913;-58
2023/09/26 04:05:22;;;;;;;;;;;;;;;;;;5097704;28;19923;-55
2023/09/26 04:07:47;;;;;;;;;;;;;;;;;;5116609;28;19916;-57
2023/09/26 04:10:13;;;;;;;;;;;;;;;;;;5116271;28;19920;-59
2023/09/26 04:12:38;;;;;;;;;;;;;;;;;;5102538;28;19923;-57
2023/09/26 04:15:05;;;;;;;;;;;;;;;;;;5116530;28;19916;-53
2023/09/26 04:17:30;;;;;;;;;;;;;;;;;;5116558;28;19919;-55
2023/09/26 04:19:57;;;;;;;;;;;;;;;;;;5116758;28;19916;-53
2023/09/26 04:22:23;;;;;;;;;;;;;;;;;;5096098;28;19954;-58
2023/09/26 04:24:48;;;;;;;;;;;;;;;;;;5104845;28;19916;-54
2023/09/26 04:27:14;;;;;;;;;;;;;;;;;;5111797;28;20010;-54
2023/09/26 04:29:39;;;;;;;;;;;;;;;;;;5116662;28;19920;-56
2023/09/26 04:32:05;;;;;;;;;;;;;;;;;;5113128;28;19912;-52
2023/09/26 04:34:32;;;;;;;;;;;;;;;;;;5116868;28;19923;-54
2023/09/26 04:36:57;;;;;;;;;;;;;;;;;;5108400;28;19982;-54
2023/09/26 04:39:23;;;;;;;;;;;;;;;;;;5104619;28;19912;-50
2023/09/26 04:41:48;;;;;;;;;;;;;;;;;;5115793;28;19917;-54
2023/09/26 04:44:14;;;;;;;;;;;;;;;;;;5096426;28;20079;-56
2023/09/26 04:46:40;;;;;;;;;;;;;;;;;;5095483;28;19935;-57
2023/09/26 04:49:06;;;;;;;;;;;;;;;;;;5089465;28;21288;-54
2023/09/26 04:51:32;;;;;;;;;;;;;;;;;;5103073;28;19923;-54
2023/09/26 04:54:01;;;;;;;;;;;;;;;;;;5103646;28;19936;-52
2023/09/26 04:56:26;;;;;;;;;;;;;;;;;;5103182;28;19938;-50
2023/09/26 04:58:52;;;;;;;;;;;;;;;;;;5105422;28;19913;-56
2023/09/26 05:01:17;;;;;;;;;;;;;;;;;;5109064;28;19913;-56
2023/09/26 05:03:43;;;;;;;;;;;;;;;;;;5103144;28;19992;-56
2023/09/26 05:06:08;;;;;;;;;;;;;;;;;;5100980;28;19939;-55
2023/09/26 05:08:34;;;;;;;;;;;;;;;;;;5105759;28;19937;-57
2023/09/26 05:10:59;;;;;;;;;;;;;;;;;;5105646;28;19912;-55
2023/09/26 05:13:25;;;;;;;;;;;;;;;;;;5101151;28;19912;-57
2023/09/26 05:15:51;;;;;;;;;;;;;;;;;;5112511;28;19979;-53
2023/09/26 05:18:17;;;;;;;;;;;;;;;;;;5111966;28;19912;-56
2023/09/26 05:20:42;;;;;;;;;;;;;;;;;;5095287;28;19967;-56
2023/09/26 05:23:08;;;;;;;;;;;;;;;;;;5101777;28;19939;-54
2023/09/26 05:25:33;;;;;;;;;;;;;;;;;;5083821;28;19917;-54
2023/09/26 05:27:59;;;;;;;;;;;;;;;;;;5090169;28;19924;-56
2023/09/26 05:30:24;;;;;;;;;;;;;;;;;;5083782;28;19920;-55
2023/09/26 05:32:49;;;;;;;;;;;;;;;;;;5094317;28;19920;-55
2023/09/26 05:35:14;;;;;;;;;;;;;;;;;;5078709;28;19927;-56
2023/09/26 05:37:40;;;;;;;;;;;;;;;;;;5091035;28;19916;-57
2023/09/26 05:40:09;;;;;;;;;;;;;;;;;;5079889;28;19924;-55
2023/09/26 05:42:34;;;;;;;;;;;;;;;;;;5094861;28;19912;-56
2023/09/26 05:45:00;;;;;;;;;;;;;;;;;;5103613;28;19965;-57
2023/09/26 05:47:26;;;;;;;;;;;;;;;;;;5102822;28;19988;-57
2023/09/26 05:49:51;;;;;;;;;;;;;;;;;;5093234;28;19913;-55
2023/09/26 05:52:17;;;;;;;;;;;;;;;;;;5096713;28;19912;-55
2023/09/26 05:54:43;;;;;;;;;;;;;;;;;;5103315;28;19912;-57
2023/09/26 05:57:08;;;;;;;;;;;;;;;;;;5098695;28;19917;-57
2023/09/26 05:59:34;;;;;;;;;;;;;;;;;;5114862;28;19916;-53
2023/09/26 06:01:59;;;;;;;;;;;;;;;;;;5102990;28;19912;-56
2023/09/26 06:04:25;;;;;;;;;;;;;;;;;;5114630;28;19919;-56
2023/09/26 06:06:50;;;;;;;;;;;;;;;;;;5109961;28;19972;-52
2023/09/26 06:09:16;;;;;;;;;;;;;;;;;;5106905;28;19913;-56
2023/09/26 06:11:41;;;;;;;;;;;;;;;;;;5096427;28;19916;-58
2023/09/26 06:14:07;;;;;;;;;;;;;;;;;;5094899;28;19935;-56
2023/09/26 06:16:32;;;;;;;;;;;;;;;;;;5095418;28;19929;-55
2023/09/26 06:18:57;;;;;;;;;;;;;;;;;;5098253;28;19912;-55
2023/09/26 06:21:23;;;;;;;;;;;;;;;;;;5104222;28;19920;-56
2023/09/26 06:23:48;;;;;;;;;;;;;;;;;;5110227;28;19916;-56
2023/09/26 06:26:13;;;;;;;;;;;;;;;;;;5104916;28;19916;-56
2023/09/26 06:28:39;;;;;;;;;;;;;;;;;;5109355;28;19912;-56
2023/09/26 06:31:05;;;;;;;;;;;;;;;;;;5104938;28;19963;-54
2023/09/26 06:33:30;;;;;;;;;;;;;;;;;;5112816;28;19939;-56
2023/09/26 06:35:56;;;;;;;;;;;;;;;;;;5114392;28;19916;-54
2023/09/26 06:38:21;;;;;;;;;;;;;;;;;;5102028;28;19912;-55
2023/09/26 06:40:47;;;;;;;;;;;;;;;;;;5114552;28;19916;-56
2023/09/26 06:43:13;;;;;;;;;;;;;;;;;;5102398;28;19947;-55
2023/09/26 06:45:38;;;;;;;;;;;;;;;;;;5114680;28;19923;-55
2023/09/26 06:48:04;;;;;;;;;;;;;;;;;;5109211;28;19912;-56
2023/09/26 06:50:30;;;;;;;;;;;;;;;;;;5114185;28;19988;-55
2023/09/26 06:52:55;;;;;;;;;;;;;;;;;;5107961;28;19971;-56
2023/09/26 06:55:21;;;;;;;;;;;;;;;;;;5114274;28;19919;-56
2023/09/26 06:57:46;;;;;;;;;;;;;;;;;;5103413;28;19920;-56
2023/09/26 07:00:13;;;;;;;;;;;;;;;;;;5094788;28;19920;-56
2023/09/26 07:02:41;;;;;;;;;;;;;;;;;;5097031;28;19980;-55
2023/09/26 07:05:07;;;;;;;;;;;;;;;;;;5094885;28;19963;-56
2023/09/26 07:07:33;;;;;;;;;;;;;;;;;;5098389;28;19913;-53
2023/09/26 07:09:58;;;;;;;;;;;;;;;;;;5098792;28;20002;-54
2023/09/26 07:12:26;;;;;;;;;;;;;;;;;;5100639;28;19931;-54
2023/09/26 07:14:51;;;;;;;;;;;;;;;;;;5098486;28;19913;-55
2023/09/26 07:17:17;;;;;;;;;;;;;;;;;;5096875;28;19991;-55
2023/09/26 07:19:42;;;;;;;;;;;;;;;;;;5096837;28;19972;-54
2023/09/26 07:22:08;;;;;;;;;;;;;;;;;;5099993;28;19920;-58
2023/09/26 07:24:33;;;;;;;;;;;;;;;;;;5106565;28;19912;-50
2023/09/26 07:26:59;;;;;;;;;;;;;;;;;;5115658;28;19925;-58
2023/09/26 07:29:25;;;;;;;;;;;;;;;;;;5096905;28;19981;-56
2023/09/26 07:31:52;;;;;;;;;;;;;;;;;;5111953;28;19916;-56
2023/09/26 07:34:17;;;;;;;;;;;;;;;;;;5099413;28;19973;-55
2023/09/26 07:36:42;;;;;;;;;;;;;;;;;;5098644;28;19936;-56
2023/09/26 07:39:08;;;;;;;;;;;;;;;;;;5116481;28;19920;-58
2023/09/26 07:41:33;;;;;;;;;;;;;;;;;;5116501;28;19955;-54
2023/09/26 07:43:58;;;;;;;;;;;;;;;;;;5114986;28;19916;-56
2023/09/26 07:46:24;;;;;;;;;;;;;;;;;;5116894;28;19920;-57
2023/09/26 07:48:49;;;;;;;;;;;;;;;;;;5117071;28;19919;-56
2023/09/26 07:51:16;;;;;;;;;;;;;;;;;;5116203;28;19920;-58
2023/09/26 07:53:42;;;;;;;;;;;;;;;;;;5115852;28;19912;-55
2023/09/26 07:56:07;;;;;;;;;;;;;;;;;;5116324;28;19916;-56
2023/09/26 07:58:32;;;;;;;;;;;;;;;;;;5116168;28;19939;-55
2023/09/26 08:01:00;;;;;;;;;;;;;;;;;;5114930;28;19927;-57
2023/09/26 08:03:26;;;;;;;;;;;;;;;;;;5116422;28;19912;-57
2023/09/26 08:05:51;;;;;;;;;;;;;;;;;;5115073;28;19975;-58
2023/09/26 08:08:17;;;;;;;;;;;;;;;;;;5108874;28;19913;-58
2023/09/26 08:10:42;;;;;;;;;;;;;;;;;;5111224;28;19913;-58
2023/09/26 08:13:08;;;;;;;;;;;;;;;;;;5113772;28;19951;-56
2023/09/26 08:15:34;;;;;;;;;;;;;;;;;;5115402;28;19938;-58
2023/09/26 08:17:59;;;;;;;;;;;;;;;;;;5111885;28;19918;-59
2023/09/26 08:20:24;;;;;;;;;;;;;;;;;;5095796;28;19913;-59
2023/09/26 08:22:50;;;;;;;;;;;;;;;;;;5080056;28;19943;-57
2023/09/26 08:25:15;;;;;;;;;;;;;;;;;;5101033;28;19913;-55
2023/09/26 08:27:40;;;;;;;;;;;;;;;;;;5105598;28;19919;-59
2023/09/26 08:30:06;;;;;;;;;;;;;;;;;;5096115;28;19913;-58
2023/09/26 08:32:31;;;;;;;;;;;;;;;;;;5096364;28;19912;-56
2023/09/26 08:34:57;;;;;;;;;;;;;;;;;;5097292;28;19935;-56
2023/09/26 08:37:22;;;;;;;;;;;;;;;;;;5095510;28;19979;-57
2023/09/26 08:39:48;;;;;;;;;;;;;;;;;;5096368;28;19920;-56
2023/09/26 08:42:14;;;;;;;;;;;;;;;;;;5095440;28;19913;-57
2023/09/26 08:44:40;;;;;;;;;;;;;;;;;;5107791;28;19913;-58
2023/09/26 08:47:05;;;;;;;;;;;;;;;;;;5095907;28;19923;-55
2023/09/26 08:49:31;;;;;;;;;;;;;;;;;;5109812;28;19916;-55
2023/09/26 08:51:56;;;;;;;;;;;;;;;;;;5113024;28;19994;-54
2023/09/26 08:54:23;;;;;;;;;;;;;;;;;;5113797;28;19912;-56
2023/09/26 08:56:49;;;;;;;;;;;;;;;;;;5105523;28;19992;-58
2023/09/26 08:59:14;;;;;;;;;;;;;;;;;;5101765;28;19920;-58
2023/09/26 09:01:40;;;;;;;;;;;;;;;;;;5095360;28;19924;-58
2023/09/26 09:04:05;;;;;;;;;;;;;;;;;;5096437;28;19947;-58
2023/09/26 09:06:31;;;;;;;;;;;;;;;;;;5095383;28;19920;-59
2023/09/26 09:08:56;;;;;;;;;;;;;;;;;;5095371;28;19934;-57
2023/09/26 09:11:22;;;;;;;;;;;;;;;;;;5095252;28;19935;-57
2023/09/26 09:13:47;;;;;;;;;;;;;;;;;;5095397;28;19920;-55
2023/09/26 09:16:13;;;;;;;;;;;;;;;;;;5095267;28;19950;-57
2023/09/26 09:18:38;;;;;;;;;;;;;;;;;;5095601;28;19927;-58
2023/09/26 09:21:04;;;;;;;;;;;;;;;;;;5095042;28;19971;-58
2023/09/26 09:23:29;;;;;;;;;;;;;;;;;;5096352;28;19943;-56
2023/09/26 09:25:54;;;;;;;;;;;;;;;;;;5108010;28;19926;-55
2023/09/26 09:28:21;;;;;;;;;;;;;;;;;;5095712;28;19912;-57
2023/09/26 09:30:46;;;;;;;;;;;;;;;;;;5106961;28;19913;-55
2023/09/26 09:33:12;;;;;;;;;;;;;;;;;;5096372;28;19951;-57
2023/09/26 09:35:37;;;;;;;;;;;;;;;;;;5105117;28;19923;-56
2023/09/26 09:38:03;;;;;;;;;;;;;;;;;;5096226;28;19912;-58
2023/09/26 09:40:28;;;;;;;;;;;;;;;;;;5104540;28;19924;-58
2023/09/26 09:42:55;;;;;;;;;;;;;;;;;;5097056;28;19920;-55
2023/09/26 09:45:20;;;;;;;;;;;;;;;;;;5097705;28;19913;-58
2023/09/26 09:47:46;;;;;;;;;;;;;;;;;;5096094;28;19913;-58
2023/09/26 09:50:11;;;;;;;;;;;;;;;;;;5095369;28;19913;-57
2023/09/26 09:52:37;;;;;;;;;;;;;;;;;;5096140;28;19912;-59
2023/09/26 09:55:02;;;;;;;;;;;;;;;;;;5098613;28;19923;-59
2023/09/26 09:57:27;;;;;;;;;;;;;;;;;;5096133;28;20411;-59
2023/09/26 09:59:53;;;;;;;;;;;;;;;;;;5095786;28;19939;-57
2023/09/26 10:02:18;;;;;;;;;;;;;;;;;;5096114;28;19923;-59
2023/09/26 10:04:44;;;;;;;;;;;;;;;;;;5095419;28;19912;-57
2023/09/26 10:07:10;;;;;;;;;;;;;;;;;;5095851;28;19912;-59
2023/09/26 10:09:35;;;;;;;;;;;;;;;;;;5101666;28;19934;-58
2023/09/26 10:12:01;;;;;;;;;;;;;;;;;;5100882;28;19912;-58
2023/09/26 10:14:28;;;;;;;;;;;;;;;;;;5099476;28;19924;-58
2023/09/26 10:16:53;;;;;;;;;;;;;;;;;;5066605;28;19927;-56
2023/09/26 10:19:19;;;;;;;;;;;;;;;;;;5099056;28;19916;-58
2023/09/26 10:21:44;;;;;;;;;;;;;;;;;;5114336;28;19943;-58
2023/09/26 10:24:13;;;;;;;;;;;;;;;;;;5112700;28;19912;-59
2023/09/26 10:26:38;;;;;;;;;;;;;;;;;;5107500;28;19926;-59
2023/09/26 10:29:04;;;;;;;;;;;;;;;;;;5114075;28;19971;-57
2023/09/26 10:31:30;;;;;;;;;;;;;;;;;;5114146;28;20002;-59
2023/09/26 10:33:56;;;;;;;;;;;;;;;;;;5081250;28;19919;-58
2023/09/26 10:36:22;;;;;;;;;;;;;;;;;;5108656;28;19916;-59
2023/09/26 10:38:47;;;;;;;;;;;;;;;;;;5114413;28;19918;-59
2023/09/26 10:41:13;;;;;;;;;;;;;;;;;;5109613;28;19935;-59
2023/09/26 10:43:38;;;;;;;;;;;;;;;;;;5116640;28;19935;-58
2023/09/26 10:46:04;;;;;;;;;;;;;;;;;;5115611;28;19912;-59
2023/09/26 10:48:29;;;;;;;;;;;;;;;;;;5111307;28;19976;-58
2023/09/26 10:50:55;;;;;;;;;;;;;;;;;;5110633;28;19968;-59
2023/09/26 10:53:20;;;;;;;;;;;;;;;;;;5109967;28;19939;-60
2023/09/26 10:55:46;;;;;;;;;;;;;;;;;;5110767;28;19987;-58
2023/09/26 10:58:12;;;;;;;;;;;;;;;;;;5116414;28;19912;-59
2023/09/26 11:00:38;;;;;;;;;;;;;;;;;;5117546;28;19909;-58
2023/09/26 11:03:03;;;;;;;;;;;;;;;;;;5103921;28;19934;-59
2023/09/26 11:05:31;;;;;;;;;;;;;;;;;;5115641;28;19940;-59
2023/09/26 11:07:56;;;;;;;;;;;;;;;;;;5116428;28;19912;-59
2023/09/26 11:10:22;;;;;;;;;;;;;;;;;;5108821;28;19917;-59
2023/09/26 11:12:47;;;;;;;;;;;;;;;;;;5117442;28;19946;-57
2023/09/26 11:15:13;;;;;;;;;;;;;;;;;;5105086;28;19916;-57
2023/09/26 11:17:38;;;;;;;;;;;;;;;;;;5097958;28;19935;-59
2023/09/26 11:20:09;;;;;;;;;;;;;;;;;;5104848;28;19912;-58
2023/09/26 11:22:34;;;;;;;;;;;;;;;;;;5096778;28;19919;-58
2023/09/26 11:24:59;;;;;;;;;;;;;;;;;;5114611;28;19916;-59
2023/09/26 11:27:25;;;;;;;;;;;;;;;;;;5112545;28;19924;-58
2023/09/26 11:29:50;;;;;;;;;;;;;;;;;;5115634;28;19923;-57
2023/09/26 11:32:16;;;;;;;;;;;;;;;;;;5112031;28;19912;-59
2023/09/26 11:34:43;;;;;;;;;;;;;;;;;;5116115;28;19954;-59
2023/09/26 11:37:09;;;;;;;;;;;;;;;;;;5115403;28;19920;-59
2023/09/26 11:39:34;;;;;;;;;;;;;;;;;;5113606;28;19912;-58
2023/09/26 11:42:00;;;;;;;;;;;;;;;;;;5098741;28;19913;-59
2023/09/26 11:44:25;;;;;;;;;;;;;;;;;;5117320;28;19913;-59
2023/09/26 11:46:51;;;;;;;;;;;;;;;;;;5100211;28;19939;-58
2023/09/26 11:49:16;;;;;;;;;;;;;;;;;;5097131;28;19912;-59
2023/09/26 11:51:42;;;;;;;;;;;;;;;;;;5096841;28;19912;-60
2023/09/26 11:54:07;;;;;;;;;;;;;;;;;;5096266;28;19916;-59
2023/09/26 11:56:33;;;;;;;;;;;;;;;;;;5108892;28;19923;-58
2023/09/26 11:58:58;;;;;;;;;;;;;;;;;;5097034;28;19955;-59
2023/09/26 12:01:24;;;;;;;;;;;;;;;;;;5099238;28;19912;-60
2023/09/26 12:03:49;;;;;;;;;;;;;;;;;;5116884;28;19920;-58
2023/09/26 12:06:15;;;;;;;;;;;;;;;;;;5113610;28;20021;-59
2023/09/26 12:08:41;;;;;;;;;;;;;;;;;;5104110;28;19934;-60
2023/09/26 12:11:06;;;;;;;;;;;;;;;;;;5116192;28;19975;-58
2023/09/26 12:13:31;;;;;;;;;;;;;;;;;;5116785;28;19916;-58
2023/09/26 12:15:57;;;;;;;;;;;;;;;;;;5113984;28;19988;-58
2023/09/26 12:18:22;;;;;;;;;;;;;;;;;;5116500;28;20015;-60
2023/09/26 12:20:53;;;;;;;;;;;;;;;;;;5115897;28;19921;-60
2023/09/26 12:23:21;;;;;;;;;;;;;;;;;;5132170;28;19916;-58
2023/09/26 12:25:47;;;;;;;;;;;;;;;;;;5100917;28;19919;-60
2023/09/26 12:28:12;;;;;;;;;;;;;;;;;;5116483;28;20011;-58
2023/09/26 12:30:38;;;;;;;;;;;;;;;;;;5099157;28;19916;-59
2023/09/26 12:33:03;;;;;;;;;;;;;;;;;;5109295;28;19912;-58
2023/09/26 12:35:29;;;;;;;;;;;;;;;;;;5101487;28;20022;-59
2023/09/26 12:37:55;;;;;;;;;;;;;;;;;;5109257;28;19912;-59
2023/09/26 12:40:21;;;;;;;;;;;;;;;;;;5115570;28;19927;-60
2023/09/26 12:42:46;;;;;;;;;;;;;;;;;;5116497;28;19912;-58
2023/09/26 12:45:12;;;;;;;;;;;;;;;;;;5102284;28;19912;-61
2023/09/26 12:47:37;;;;;;;;;;;;;;;;;;5111469;28;19912;-58
2023/09/26 12:50:08;;;;;;;;;;;;;;;;;;5096150;28;19913;-59
2023/09/26 12:52:33;;;;;;;;;;;;;;;;;;5095757;28;19912;-58
2023/09/26 12:54:59;;;;;;;;;;;;;;;;;;5089032;28;19931;-59
2023/09/26 12:57:24;;;;;;;;;;;;;;;;;;5113391;28;19924;-60
2023/09/26 12:59:51;;;;;;;;;;;;;;;;;;5115314;28;19916;-59
2023/09/26 13:02:16;;;;;;;;;;;;;;;;;;5101768;28;19916;-60
2023/09/26 13:04:42;;;;;;;;;;;;;;;;;;5101931;28;19924;-59
2023/09/26 13:07:07;;;;;;;;;;;;;;;;;;5114871;28;19971;-59
2023/09/26 13:09:32;;;;;;;;;;;;;;;;;;5102048;28;19912;-59
2023/09/26 13:11:58;;;;;;;;;;;;;;;;;;5097798;28;19912;-59
2023/09/26 13:14:24;;;;;;;;;;;;;;;;;;5101844;28;19919;-59
2023/09/26 13:16:50;;;;;;;;;;;;;;;;;;5113453;28;19927;-59
2023/09/26 13:19:16;;;;;;;;;;;;;;;;;;5101148;28;19916;-60
2023/09/26 13:21:42;;;;;;;;;;;;;;;;;;5115256;28;19912;-60
2023/09/26 13:24:07;;;;;;;;;;;;;;;;;;5114790;28;19934;-60
2023/09/26 13:26:32;;;;;;;;;;;;;;;;;;5107525;28;19912;-59
2023/09/26 13:28:57;;;;;;;;;;;;;;;;;;5095133;28;19920;-60
2023/09/26 13:31:23;;;;;;;;;;;;;;;;;;5108218;28;19912;-59
2023/09/26 13:33:48;;;;;;;;;;;;;;;;;;5095254;28;19965;-60
2023/09/26 13:36:14;;;;;;;;;;;;;;;;;;5096640;28;19924;-59
2023/09/26 13:38:39;;;;;;;;;;;;;;;;;;5095630;28;19919;-60
2023/09/26 13:41:05;;;;;;;;;;;;;;;;;;5106933;28;20014;-60
2023/09/26 13:43:30;;;;;;;;;;;;;;;;;;5100851;28;19916;-59
2023/09/26 13:45:56;;;;;;;;;;;;;;;;;;5114567;28;19911;-60
2023/09/26 13:48:22;;;;;;;;;;;;;;;;;;5113987;28;19912;-60
2023/09/26 13:50:47;;;;;;;;;;;;;;;;;;5114320;28;19934;-60
2023/09/26 13:53:13;;;;;;;;;;;;;;;;;;5101876;28;19944;-60
2023/09/26 13:55:38;;;;;;;;;;;;;;;;;;5102143;28;19916;-60
2023/09/26 13:58:04;;;;;;;;;;;;;;;;;;5101822;28;19912;-60
2023/09/26 14:00:29;;;;;;;;;;;;;;;;;;5114969;28;19931;-60
2023/09/26 14:02:55;;;;;;;;;;;;;;;;;;5104049;28;19919;-60
2023/09/26 14:05:23;;;;;;;;;;;;;;;;;;5107050;28;19916;-60
2023/09/26 14:07:49;;;;;;;;;;;;;;;;;;5102480;28;19941;-60
2023/09/26 14:10:14;;;;;;;;;;;;;;;;;;5114111;28;19919;-59
2023/09/26 14:12:39;;;;;;;;;;;;;;;;;;5100550;28;19944;-62
2023/09/26 14:15:05;;;;;;;;;;;;;;;;;;5114188;28;19916;-59
2023/09/26 14:17:31;;;;;;;;;;;;;;;;;;5094698;28;19912;-59
2023/09/26 14:19:57;;;;;;;;;;;;;;;;;;5118519;28;19912;-59
2023/09/26 14:22:22;;;;;;;;;;;;;;;;;;5102880;28;19918;-59
2023/09/26 14:24:48;;;;;;;;;;;;;;;;;;5110641;28;19916;-58
2023/09/26 14:27:13;;;;;;;;;;;;;;;;;;5101729;28;19920;-60
2023/09/26 14:29:39;;;;;;;;;;;;;;;;;;5099007;28;19950;-59
2023/09/26 14:32:04;;;;;;;;;;;;;;;;;;5098714;28;19942;-59
2023/09/26 14:34:30;;;;;;;;;;;;;;;;;;5098939;28;19912;-59
2023/09/26 14:36:55;;;;;;;;;;;;;;;;;;5098842;28;19916;-59
2023/09/26 14:39:21;;;;;;;;;;;;;;;;;;5098830;28;19946;-59
2023/09/26 14:41:46;;;;;;;;;;;;;;;;;;5100100;28;19970;-59
2023/09/26 14:44:13;;;;;;;;;;;;;;;;;;5107231;28;19912;-59
2023/09/26 14:46:39;;;;;;;;;;;;;;;;;;5102042;28;19933;-59
2023/09/26 14:49:04;;;;;;;;;;;;;;;;;;5106013;28;19912;-59
2023/09/26 14:51:30;;;;;;;;;;;;;;;;;;5102792;28;19924;-59
2023/09/26 14:53:55;;;;;;;;;;;;;;;;;;5118368;28;19912;-59
2023/09/26 14:56:21;;;;;;;;;;;;;;;;;;5117558;28;19979;-60
2023/09/26 14:58:47;;;;;;;;;;;;;;;;;;5117970;28;19919;-59
2023/09/26 15:01:13;;;;;;;;;;;;;;;;;;5104353;28;20000;-59
2023/09/26 15:03:38;;;;;;;;;;;;;;;;;;5118038;28;19912;-59
2023/09/26 15:06:04;;;;;;;;;;;;;;;;;;5117494;28;19923;-59
2023/09/26 15:08:29;;;;;;;;;;;;;;;;;;5104851;28;19928;-59
2023/09/26 15:10:55;;;;;;;;;;;;;;;;;;5114974;28;19912;-59
2023/09/26 15:13:20;;;;;;;;;;;;;;;;;;5106399;28;19981;-58
2023/09/26 15:15:46;;;;;;;;;;;;;;;;;;5101956;28;19916;-59
2023/09/26 15:18:12;;;;;;;;;;;;;;;;;;5117503;28;19922;-59
2023/09/26 15:20:38;;;;;;;;;;;;;;;;;;5099938;28;19909;-58
2023/09/26 15:23:04;;;;;;;;;;;;;;;;;;5098025;28;19948;-59
2023/09/26 15:25:29;;;;;;;;;;;;;;;;;;5096019;28;19946;-59
2023/09/26 15:27:55;;;;;;;;;;;;;;;;;;5104012;28;19967;-60
2023/09/26 15:30:20;;;;;;;;;;;;;;;;;;5099760;28;19916;-59
2023/09/26 15:32:45;;;;;;;;;;;;;;;;;;5098530;28;19913;-59
2023/09/26 15:35:11;;;;;;;;;;;;;;;;;;5098976;28;19985;-61
2023/09/26 15:37:37;;;;;;;;;;;;;;;;;;5101472;28;19919;-59
2023/09/26 15:40:03;;;;;;;;;;;;;;;;;;5101728;28;19917;-59
2023/09/26 15:42:28;;;;;;;;;;;;;;;;;;5100458;28;19917;-59
2023/09/26 15:44:54;;;;;;;;;;;;;;;;;;5102414;28;20003;-59
2023/09/26 15:47:19;;;;;;;;;;;;;;;;;;5098913;28;19974;-59
2023/09/26 15:49:45;;;;;;;;;;;;;;;;;;5101069;28;19912;-60
2023/09/26 15:52:11;;;;;;;;;;;;;;;;;;5098923;28;19973;-62
2023/09/26 15:54:36;;;;;;;;;;;;;;;;;;5100966;28;19924;-61
2023/09/26 15:57:01;;;;;;;;;;;;;;;;;;5098683;28;19921;-61
2023/09/26 15:59:27;;;;;;;;;;;;;;;;;;5112139;28;19980;-61
2023/09/26 16:01:53;;;;;;;;;;;;;;;;;;5098944;28;19979;-58
2023/09/26 16:04:18;;;;;;;;;;;;;;;;;;5099816;28;19934;-59
2023/09/26 16:06:44;;;;;;;;;;;;;;;;;;5098176;28;19912;-59
2023/09/26 16:09:09;;;;;;;;;;;;;;;;;;5100487;28;19916;-59
2023/09/26 16:11:35;;;;;;;;;;;;;;;;;;5097842;28;19935;-59
2023/09/26 16:14:00;;;;;;;;;;;;;;;;;;5106535;28;19983;-59
2023/09/26 16:16:26;;;;;;;;;;;;;;;;;;5097073;28;19917;-60
2023/09/26 16:18:52;;;;;;;;;;;;;;;;;;5098962;28;19920;-59
2023/09/26 16:21:18;;;;;;;;;;;;;;;;;;5106599;28;19912;-59
2023/09/26 16:23:44;;;;;;;;;;;;;;;;;;5110548;28;19920;-58
2023/09/26 16:26:09;;;;;;;;;;;;;;;;;;5106997;28;19991;-59
2023/09/26 16:28:35;;;;;;;;;;;;;;;;;;5109328;28;19916;-57
2023/09/26 16:31:00;;;;;;;;;;;;;;;;;;5116694;28;19951;-59
2023/09/26 16:33:25;;;;;;;;;;;;;;;;;;5110933;28;19933;-59
2023/09/26 16:35:51;;;;;;;;;;;;;;;;;;5105971;28;19920;-59